Time;durP1;ratioP1;P1;durP2;ratioP2;P2;SDS_P1;SDS_P2;PMS_P1;PMS_P2;Temp;Humidity;BMP_temperature;BMP_pressure;BME280_temperature;BME280_humidity;BME280_pressure;Samples;Min_cycle;Max_cycle;Signal;HPM_P1;HPM_P2
2022/02/12 00:00:05;;;;;;;18.95;5.20;;;;;;;-3.08;94.22;103425.09;5053922;28;20048;-78
2022/02/12 00:02:31;;;;;;;18.27;6.25;;;;;;;-3.12;93.87;103419.84;5053361;28;20033;-76
2022/02/12 00:04:56;;;;;;;15.82;5.63;;;;;;;-3.15;94.27;103422.44;5053337;28;20124;-76
2022/02/12 00:07:21;;;;;;;16.75;5.05;;;;;;;-3.21;94.13;103405.91;5053029;28;20546;-76
2022/02/12 00:09:47;;;;;;;21.63;6.35;;;;;;;-3.24;94.40;103411.09;5053467;28;20025;-76
2022/02/12 00:12:12;;;;;;;19.63;5.95;;;;;;;-3.26;94.50;103406.72;5052603;28;20120;-77
2022/02/12 00:14:37;;;;;;;16.38;5.63;;;;;;;-3.28;94.47;103401.50;5053240;28;20033;-76
2022/02/12 00:17:03;;;;;;;19.23;6.32;;;;;;;-3.31;94.26;103401.47;5051804;28;20131;-76
2022/02/12 00:19:28;;;;;;;15.43;5.63;;;;;;;-3.34;94.54;103401.44;5052962;28;20036;-75
2022/02/12 00:21:54;;;;;;;17.60;5.60;;;;;;;-3.35;94.63;103401.44;5052874;28;20040;-75
2022/02/12 00:24:19;;;;;;;14.00;5.45;;;;;;;-3.37;95.18;103401.44;5051938;28;20433;-76
2022/02/12 00:26:44;;;;;;;18.48;6.05;;;;;;;-3.41;95.12;103394.44;5052853;28;20397;-75
2022/02/12 00:29:09;;;;;;;15.85;5.70;;;;;;;-3.41;94.77;103392.69;5051026;28;20102;-76
2022/02/12 00:31:35;;;;;;;12.15;5.72;;;;;;;-3.41;94.82;103394.44;5052681;28;20041;-75
2022/02/12 00:34:00;;;;;;;19.15;6.38;;;;;;;-3.45;94.38;103387.44;5051623;28;20039;-76
2022/02/12 00:36:26;;;;;;;19.25;7.10;;;;;;;-3.44;95.14;103384.00;5052131;28;20368;-76
2022/02/12 00:38:51;;;;;;;22.70;7.18;;;;;;;-3.45;95.45;103387.44;5051492;28;20064;-75
2022/02/12 00:41:17;;;;;;;19.38;6.63;;;;;;;-3.46;95.89;103380.50;5053381;28;20032;-75
2022/02/12 00:43:42;;;;;;;17.92;5.45;;;;;;;-3.43;96.05;103375.34;5053613;28;20561;-76
2022/02/12 00:46:08;;;;;;;14.90;5.43;;;;;;;-3.39;96.29;103369.28;5052707;28;20119;-79
2022/02/12 00:48:33;;;;;;;19.90;5.32;;;;;;;-3.30;96.42;103371.09;5051944;28;20037;-75
2022/02/12 00:50:59;;;;;;;20.80;5.45;;;;;;;-3.17;96.54;103370.31;5052369;28;20029;-75
2022/02/12 00:53:26;;;;;;;22.30;5.88;;;;;;;-3.12;96.99;103367.75;5051209;28;20072;-76
2022/02/12 00:55:51;;;;;;;19.08;6.20;;;;;;;-3.14;97.05;103372.09;5052938;28;20033;-75
2022/02/12 00:58:17;;;;;;;14.48;5.13;;;;;;;-3.17;96.81;103364.25;5050010;28;20037;-76
2022/02/12 01:00:43;;;;;;;19.40;5.65;;;;;;;-3.21;96.98;103363.34;5050916;28;20527;-76
2022/02/12 01:03:08;;;;;;;21.75;5.18;;;;;;;-3.21;97.08;103360.75;5052232;28;20076;-76
2022/02/12 01:05:34;;;;;;;21.35;4.93;;;;;;;-3.18;97.21;103355.56;5051521;28;20040;-75
2022/02/12 01:08:00;;;;;;;15.50;5.10;;;;;;;-3.14;97.25;103353.84;5052033;28;20082;-76
2022/02/12 01:10:25;;;;;;;12.85;4.88;;;;;;;-3.12;97.15;103346.91;5050231;28;20431;-75
2022/02/12 01:12:51;;;;;;;19.75;5.72;;;;;;;-3.09;97.57;103345.22;5033970;28;20043;-74
2022/02/12 01:15:16;;;;;;;18.13;4.55;;;;;;;-3.00;97.47;103341.81;5050926;28;20115;-76
2022/02/12 01:17:42;;;;;;;20.80;5.07;;;;;;;-2.97;97.37;103341.81;5050579;28;20041;-75
2022/02/12 01:20:08;;;;;;;19.73;4.95;;;;;;;-2.97;97.08;103340.94;5051772;28;20037;-75
2022/02/12 01:22:33;;;;;;;15.65;5.32;;;;;;;-2.97;96.71;103333.13;5051112;28;20187;-75
2022/02/12 01:24:59;;;;;;;17.70;4.88;;;;;;;-2.94;96.79;103338.34;5051544;28;20500;-75
2022/02/12 01:27:24;;;;;;;19.85;5.03;;;;;;;-2.90;96.81;103338.38;5051187;28;20362;-75
2022/02/12 01:29:50;;;;;;;15.10;5.10;;;;;;;-2.84;96.81;103340.16;5051737;28;20025;-75
2022/02/12 01:32:15;;;;;;;18.63;5.50;;;;;;;-2.82;97.04;103338.44;5051182;28;20025;-77
2022/02/12 01:34:40;;;;;;;25.92;6.10;;;;;;;-2.83;97.02;103340.16;5051174;28;20036;-75
2022/02/12 01:37:07;;;;;;;16.70;4.72;;;;;;;-2.85;96.84;103341.88;5051696;28;20503;-75
2022/02/12 01:39:34;;;;;;;17.75;5.53;;;;;;;-2.86;96.63;103347.94;5050947;28;20056;-74
2022/02/12 01:42:00;;;;;;;29.50;5.22;;;;;;;-2.84;96.69;103342.75;5051654;28;20072;-74
2022/02/12 01:44:35;;;;;;;19.70;5.25;;;;;;;-2.80;96.73;103338.44;5051055;28;20061;-75
2022/02/12 01:47:00;;;;;;;27.13;5.68;;;;;;;-2.76;97.29;103341.06;5051495;28;20033;-75
2022/02/12 01:49:27;;;;;;;18.70;5.10;;;;;;;-2.66;97.98;103340.25;5033115;28;20036;-75
2022/02/12 01:51:54;;;;;;;16.50;5.53;;;;;;;-2.60;98.19;103335.94;5051399;28;20489;-75
2022/02/12 01:54:19;;;;;;;14.35;4.72;;;;;;;-2.56;98.39;103337.69;5051037;28;20115;-75
2022/02/12 01:56:46;;;;;;;15.32;5.50;;;;;;;-2.55;98.47;103332.47;5051182;28;20112;-74
2022/02/12 01:59:11;;;;;;;18.30;4.88;;;;;;;-2.54;98.55;103325.53;5049690;28;20033;-75
2022/02/12 02:01:37;;;;;;;21.10;5.20;;;;;;;-2.53;98.43;103322.91;5050838;28;20029;-75
2022/02/12 02:04:02;;;;;;;18.80;4.95;;;;;;;-2.47;98.70;103319.47;5051269;28;20033;-75
2022/02/12 02:06:28;;;;;;;19.30;5.18;;;;;;;-2.46;99.26;103313.41;5050668;28;20110;-75
2022/02/12 02:08:53;;;;;;;17.65;4.63;;;;;;;-2.42;99.16;103311.66;5051163;28;20033;-76
2022/02/12 02:11:19;;;;;;;20.45;4.82;;;;;;;-2.42;99.35;103294.28;5051310;28;20493;-77
2022/02/12 02:13:45;;;;;;;15.65;4.50;;;;;;;-2.39;99.42;103307.34;5050837;28;20036;-74
2022/02/12 02:16:12;;;;;;;17.90;4.80;;;;;;;-2.39;99.18;103293.41;5050912;28;20052;-75
2022/02/12 02:18:38;;;;;;;15.65;4.93;;;;;;;-2.35;99.43;103298.63;5049354;28;20406;-75
2022/02/12 02:21:08;;;;;;;20.48;4.82;;;;;;;-2.29;99.69;103295.19;5050025;28;20041;-75
2022/02/12 02:23:38;;;;;;;22.17;5.68;;;;;;;-2.27;100.00;103287.38;5050516;28;20064;-75
2022/02/12 02:26:04;;;;;;;13.55;4.20;;;;;;;-2.29;99.79;103287.38;5050828;28;20040;-74
2022/02/12 02:28:30;;;;;;;18.55;4.40;;;;;;;-2.33;99.82;103283.00;5050319;28;20090;-75
2022/02/12 02:30:56;;;;;;;15.15;4.30;;;;;;;-2.35;99.39;103283.00;5050891;28;20044;-75
2022/02/12 02:33:22;;;;;;;21.63;4.68;;;;;;;-2.34;99.42;103278.69;5050801;28;20029;-78
2022/02/12 02:35:47;;;;;;;19.38;4.50;;;;;;;-2.28;99.61;103273.47;5050761;28;20393;-75
2022/02/12 02:38:15;;;;;;;14.43;4.30;;;;;;;-2.25;99.94;103264.78;5050866;28;20397;-76
2022/02/12 02:40:42;;;;;;;17.38;4.53;;;;;;;-2.24;100.00;103264.78;5049091;28;20542;-75
2022/02/12 02:43:08;;;;;;;26.13;5.15;;;;;;;-2.13;100.00;103249.16;5050599;28;20057;-75
2022/02/12 02:45:34;;;;;;;24.05;4.30;;;;;;;-2.10;100.00;103254.38;5050510;28;20033;-75
2022/02/12 02:48:01;;;;;;;27.77;4.85;;;;;;;-1.97;100.00;103252.63;5050802;28;20044;-76
2022/02/12 02:56:02;;;;;;;15.18;3.78;;;;;;;-1.92;99.69;103256.13;5051056;28;20048;-75
2022/02/12 02:58:30;;;;;;;23.92;5.63;;;;;;;-1.85;99.32;103257.88;5050007;28;20422;-75
2022/02/12 03:00:56;;;;;;;17.27;4.10;;;;;;;-1.73;99.06;103251.78;5049161;28;20349;-75
2022/02/12 03:03:22;;;;;;;19.13;3.80;;;;;;;-1.79;98.95;103251.78;5053121;28;20037;-75
2022/02/12 03:05:47;;;;;;;16.52;4.00;;;;;;;-1.85;98.51;103241.31;5053630;28;20450;-75
2022/02/12 03:08:13;;;;;;;18.33;4.00;;;;;;;-1.93;97.63;103238.72;5054038;28;20043;-75
2022/02/12 03:10:38;;;;;;;9.82;3.65;;;;;;;-1.96;97.69;103223.94;5053733;28;20385;-76
2022/02/12 03:13:04;;;;;;;8.55;3.55;;;;;;;-1.98;97.80;103228.28;5054302;28;20110;-75
2022/02/12 03:15:29;;;;;;;13.57;3.72;;;;;;;-2.03;97.70;103218.69;5053272;28;20389;-76
2022/02/12 03:17:55;;;;;;;16.13;4.07;;;;;;;-2.10;97.45;103210.00;5053892;28;20047;-76
2022/02/12 03:20:20;;;;;;;15.60;4.10;;;;;;;-2.11;97.35;103212.63;5052793;28;20033;-76
2022/02/12 03:22:45;;;;;;;18.25;3.78;;;;;;;-2.10;97.64;103216.97;5053770;28;20338;-76
2022/02/12 03:25:11;;;;;;;15.73;3.97;;;;;;;-2.12;97.68;103211.72;5053917;28;20033;-76
2022/02/12 03:27:36;;;;;;;11.77;3.28;;;;;;;-2.16;97.50;103216.09;5053605;28;20040;-76
2022/02/12 03:30:03;;;;;;;19.23;4.68;;;;;;;-2.16;97.60;103203.03;5053771;28;20370;-75
2022/02/12 03:32:28;;;;;;;15.02;3.60;;;;;;;-2.19;97.62;103197.84;5053602;28;20041;-76
2022/02/12 03:34:53;;;;;;;15.40;3.80;;;;;;;-2.18;98.07;103202.19;5053976;28;20484;-75
2022/02/12 03:37:19;;;;;;;17.30;4.50;;;;;;;-2.16;97.77;103202.19;5052548;28;20061;-75
2022/02/12 03:39:44;;;;;;;15.07;3.65;;;;;;;-2.18;98.13;103198.69;5051422;28;20045;-75
2022/02/12 03:42:10;;;;;;;12.27;3.63;;;;;;;-2.20;97.88;103197.84;5053845;28;20036;-75
2022/02/12 03:44:35;;;;;;;18.63;4.00;;;;;;;-2.21;97.86;103196.09;5053151;28;20036;-75
2022/02/12 03:47:01;;;;;;;17.52;3.78;;;;;;;-2.25;97.53;103191.75;5052353;28;20111;-75
2022/02/12 03:49:26;;;;;;;17.88;4.43;;;;;;;-2.28;97.31;103184.78;5053582;28;20366;-75
2022/02/12 03:51:52;;;;;;;15.82;3.92;;;;;;;-2.31;96.97;103179.56;5052879;28;20033;-74
2022/02/12 03:54:17;;;;;;;18.00;3.45;;;;;;;-2.34;96.79;103184.78;5053311;28;20059;-76
2022/02/12 03:56:43;;;;;;;18.77;4.47;;;;;;;-2.34;96.87;103184.78;5053139;28;20029;-75
2022/02/12 03:59:08;;;;;;;15.20;3.53;;;;;;;-2.35;97.17;103177.81;5052313;28;20103;-75
2022/02/12 04:01:35;;;;;;;21.23;4.40;;;;;;;-2.35;96.98;103170.84;5052793;28;20106;-76
2022/02/12 04:04:01;;;;;;;12.50;3.45;;;;;;;-2.36;97.33;103165.63;5052251;28;20094;-75
2022/02/12 04:06:26;;;;;;;19.83;4.30;;;;;;;-2.39;97.05;103165.63;5053379;28;20033;-75
2022/02/12 04:08:52;;;;;;;26.23;4.20;;;;;;;-2.37;97.10;103161.31;5034528;28;20053;-76
2022/02/12 04:11:17;;;;;;;13.90;3.38;;;;;;;-2.39;97.29;103157.81;5052837;28;20139;-76
2022/02/12 04:13:44;;;;;;;19.88;4.20;;;;;;;-2.38;97.03;103167.38;5051166;28;20453;-75
2022/02/12 04:16:09;;;;;;;12.27;4.43;;;;;;;-2.41;96.57;103159.56;5052235;28;20064;-76
2022/02/12 04:18:34;;;;;;;20.23;3.85;;;;;;;-2.45;96.68;103157.81;5051372;28;20117;-75
2022/02/12 04:21:00;;;;;;;9.48;3.67;;;;;;;-2.49;96.35;103151.75;5052863;28;20029;-74
2022/02/12 04:23:25;;;;;;;11.15;3.28;;;;;;;-2.49;96.07;103154.34;5053408;28;20389;-75
2022/02/12 04:25:50;;;;;;;15.00;3.90;;;;;;;-2.51;95.72;103148.25;5052714;28;20500;-75
2022/02/12 04:28:16;;;;;;;13.93;4.00;;;;;;;-2.49;96.02;103149.13;5053127;28;20481;-75
2022/02/12 04:30:41;;;;;;;25.98;5.13;;;;;;;-2.41;96.50;103141.31;5051366;28;20044;-75
2022/02/12 04:33:08;;;;;;;23.38;4.68;;;;;;;-2.35;97.29;103138.72;5053365;28;20070;-75
2022/02/12 04:35:35;;;;;;;17.23;4.43;;;;;;;-2.34;97.50;103137.84;5052985;28;20495;-74
2022/02/12 04:38:00;;;;;;;21.65;5.00;;;;;;;-2.34;97.63;103133.50;5052546;28;20095;-75
2022/02/12 04:40:25;;;;;;;16.17;4.93;;;;;;;-2.27;97.43;103126.53;5052641;28;20477;-76
2022/02/12 04:42:51;;;;;;;21.52;5.10;;;;;;;-2.24;97.51;103125.66;5051373;28;20116;-75
2022/02/12 04:45:16;;;;;;;14.65;4.88;;;;;;;-2.23;97.32;103120.44;5052928;28;20127;-75
2022/02/12 04:47:43;;;;;;;24.05;4.68;;;;;;;-2.23;97.20;103114.38;5052334;28;20082;-75
2022/02/12 04:50:09;;;;;;;22.00;4.70;;;;;;;-2.24;96.70;103108.28;5052763;28;20033;-76
2022/02/12 04:52:35;;;;;;;22.35;6.13;;;;;;;-2.15;96.44;103107.38;5052631;28;20062;-75
2022/02/12 04:55:01;;;;;;;24.67;5.13;;;;;;;-2.16;97.24;103103.91;5051963;28;20458;-75
2022/02/12 04:57:26;;;;;;;24.98;6.18;;;;;;;-2.09;97.28;103103.91;5052804;28;20036;-75
2022/02/12 04:59:51;;;;;;;11.93;5.35;;;;;;;-2.10;97.08;103100.44;5051846;28;20504;-75
2022/02/12 05:02:17;;;;;;;20.40;5.28;;;;;;;-2.14;96.89;103096.94;5051112;28;20513;-75
2022/02/12 05:04:42;;;;;;;18.75;5.45;;;;;;;-2.14;96.58;103099.56;5051889;28;20363;-75
2022/02/12 05:07:09;;;;;;;23.80;7.18;;;;;;;-2.15;96.90;103097.84;5052351;28;20488;-75
2022/02/12 05:09:35;;;;;;;21.55;5.85;;;;;;;-2.16;96.88;103095.25;5052233;28;20090;-75
2022/02/12 05:12:05;;;;;;;15.20;5.20;;;;;;;-2.21;96.87;103100.47;5051950;28;20037;-76
2022/02/12 05:14:32;;;;;;;17.08;5.55;;;;;;;-2.29;96.92;103091.75;5052434;28;20021;-76
2022/02/12 05:16:58;;;;;;;31.55;6.90;;;;;;;-2.32;96.95;103086.53;5051699;28;20037;-76
2022/02/12 05:19:24;;;;;;;22.23;6.53;;;;;;;-2.35;97.35;103082.19;5052207;28;20124;-74
2022/02/12 05:21:49;;;;;;;14.27;6.43;;;;;;;-2.35;97.59;103087.41;5050571;28;20171;-75
2022/02/12 05:24:15;;;;;;;19.20;6.68;;;;;;;-2.36;97.51;103084.81;5051536;28;20083;-75
2022/02/12 05:26:40;;;;;;;26.92;6.93;;;;;;;-2.42;97.55;103090.03;5051053;28;20413;-75
2022/02/12 05:29:05;;;;;;;18.20;5.93;;;;;;;-2.48;97.04;103093.50;5050606;28;20044;-75
2022/02/12 05:31:31;;;;;;;14.10;5.75;;;;;;;-2.54;96.94;103085.69;5052293;28;20044;-74
2022/02/12 05:33:56;;;;;;;18.00;6.60;;;;;;;-2.58;96.46;103083.94;5051735;28;20122;-75
2022/02/12 05:36:22;;;;;;;25.85;7.03;;;;;;;-2.62;96.10;103090.88;5052272;28;20033;-76
2022/02/12 05:38:47;;;;;;;33.92;8.60;;;;;;;-2.66;96.22;103087.44;5049962;28;20143;-76
2022/02/12 05:41:14;;;;;;;17.52;7.25;;;;;;;-2.70;96.20;103075.25;5052198;28;20040;-76
2022/02/12 05:43:40;;;;;;;16.75;6.15;;;;;;;-2.71;96.20;103081.31;5051940;28;20051;-75
2022/02/12 05:46:07;;;;;;;23.33;7.07;;;;;;;-2.73;96.22;103069.16;5050079;28;20473;-75
2022/02/12 05:48:33;;;;;;;18.45;6.50;;;;;;;-2.77;95.70;103076.09;5052008;28;20063;-75
2022/02/12 05:51:00;;;;;;;20.90;7.30;;;;;;;-2.79;96.12;103069.16;5051318;28;20032;-75
2022/02/12 05:53:25;;;;;;;22.67;7.25;;;;;;;-2.80;96.23;103067.44;5051714;28;20071;-75
2022/02/12 05:55:51;;;;;;;19.27;7.55;;;;;;;-2.77;96.27;103073.50;5051708;28;20061;-76
2022/02/12 05:58:16;;;;;;;20.55;7.28;;;;;;;-2.74;96.96;103065.69;5051796;28;20021;-75
2022/02/12 06:00:42;;;;;;;21.10;7.43;;;;;;;-2.59;97.34;103056.16;5051887;28;20033;-76
2022/02/12 06:03:07;;;;;;;21.42;8.50;;;;;;;-2.44;97.96;103047.44;5051228;28;20073;-76
2022/02/12 06:05:33;;;;;;;24.98;8.93;;;;;;;-2.40;98.38;103046.59;5051083;28;20039;-75
2022/02/12 06:08:04;;;;;;;26.52;8.32;;;;;;;-2.29;98.63;103047.41;5049421;28;20029;-75
2022/02/12 06:10:30;;;;;;;;;;;;;;;-2.25;98.56;103037.88;5051796;28;20029;-76
2022/02/12 06:12:55;;;;;;;16.90;7.47;;;;;;;-2.26;98.25;103034.38;5049436;28;19946;-75
2022/02/12 06:15:21;;;;;;;33.30;7.53;;;;;;;-2.30;98.13;103030.03;5050930;28;20041;-75
2022/02/12 06:17:47;;;;;;;16.50;8.10;;;;;;;-2.36;97.62;103024.81;5050815;28;20044;-79
2022/02/12 06:20:13;;;;;;;28.58;8.68;;;;;;;-2.38;97.53;103010.94;5050899;28;20039;-75
2022/02/12 06:22:38;;;;;;;19.77;8.05;;;;;;;-2.36;98.05;103014.41;5049487;28;20029;-75
2022/02/12 06:25:05;;;;;;;20.05;7.75;;;;;;;-2.39;98.20;103012.69;5050234;28;20033;-75
2022/02/12 06:27:30;;;;;;;31.77;8.82;;;;;;;-2.40;98.29;103013.53;5050777;28;20036;-75
2022/02/12 06:29:55;;;;;;;23.05;8.13;;;;;;;-2.39;98.17;103015.28;5050636;28;20037;-76
2022/02/12 06:32:22;;;;;;;21.75;8.77;;;;;;;-2.34;98.34;103012.69;5050884;28;20497;-75
2022/02/12 06:34:47;;;;;;;23.52;8.40;;;;;;;-2.38;98.79;103005.72;5049323;28;20070;-75
2022/02/12 06:37:13;;;;;;;24.25;8.00;;;;;;;-2.45;98.59;103001.38;5051988;28;20044;-76
2022/02/12 06:39:38;;;;;;;18.98;8.20;;;;;;;-2.52;98.42;103004.00;5054396;28;20057;-75
2022/02/12 06:42:04;;;;;;;27.13;9.18;;;;;;;-2.50;98.14;103012.66;5053110;28;20420;-74
2022/02/12 06:44:29;;;;;;;25.77;9.48;;;;;;;-2.51;98.48;103008.34;5054402;28;20040;-75
2022/02/12 06:46:55;;;;;;;22.27;9.52;;;;;;;-2.51;98.79;102997.03;5054025;28;20036;-75
2022/02/12 06:49:20;;;;;;;24.10;8.57;;;;;;;-2.51;98.24;102994.44;5054367;28;20051;-75
2022/02/12 06:51:46;;;;;;;19.02;8.77;;;;;;;-2.52;98.34;102992.72;5054471;28;20079;-74
2022/02/12 06:54:11;;;;;;;21.13;9.63;;;;;;;-2.54;98.63;102987.50;5053725;28;20116;-75
2022/02/12 06:56:37;;;;;;;29.52;9.52;;;;;;;-2.47;98.89;102987.50;5054223;28;20029;-75
2022/02/12 06:59:02;;;;;;;24.48;10.35;;;;;;;-2.47;98.85;102988.34;5053651;28;20104;-75
2022/02/12 07:01:28;;;;;;;27.10;10.35;;;;;;;-2.49;98.80;102992.72;5054249;28;20118;-75
2022/02/12 07:03:54;;;;;;;27.60;10.32;;;;;;;-2.54;98.81;102990.09;5053781;28;20147;-75
2022/02/12 07:06:19;;;;;;;28.92;10.30;;;;;;;-2.56;98.45;102996.19;5053829;28;20106;-75
2022/02/12 07:08:45;;;;;;;24.67;10.10;;;;;;;-2.61;98.37;102988.38;5054004;28;20033;-74
2022/02/12 07:11:10;;;;;;;23.33;8.70;;;;;;;-2.63;97.87;102991.84;5053681;28;20170;-75
2022/02/12 07:13:36;;;;;;;22.02;9.20;;;;;;;-2.68;97.82;102990.09;5054198;28;20029;-75
2022/02/12 07:16:02;;;;;;;26.77;10.93;;;;;;;-2.72;97.59;102988.34;5053490;28;20044;-75
2022/02/12 07:18:28;;;;;;;33.13;11.18;;;;;;;-2.68;97.80;102989.25;5054233;28;20029;-76
2022/02/12 07:20:53;;;;;;;30.95;10.68;;;;;;;-2.57;98.61;102992.69;5054611;28;20515;-76
2022/02/12 07:23:19;;;;;;;22.50;10.90;;;;;;;-2.52;99.31;102987.50;5053852;28;20041;-76
2022/02/12 07:25:44;;;;;;;34.03;11.85;;;;;;;-2.47;99.47;102992.69;5054272;28;20072;-75
2022/02/12 07:28:10;;;;;;;26.42;11.00;;;;;;;-2.44;99.57;102992.69;5053589;28;20036;-75
2022/02/12 07:30:35;;;;;;;30.15;10.88;;;;;;;-2.44;99.47;102990.94;5053654;28;20422;-75
2022/02/12 07:33:00;;;;;;;25.50;10.48;;;;;;;-2.43;99.11;102981.38;5053065;28;20044;-76
2022/02/12 07:35:26;;;;;;;40.15;12.25;;;;;;;-2.39;99.52;102983.13;5053282;28;20029;-76
2022/02/12 07:37:51;;;;;;;29.20;12.13;;;;;;;-2.32;99.65;102980.47;5052756;28;20049;-76
2022/02/12 07:40:18;;;;;;;37.95;12.63;;;;;;;-2.26;99.96;102973.53;5052667;28;20323;-76
2022/02/12 07:42:45;;;;;;;27.52;11.30;;;;;;;-2.22;100.00;102970.91;5053049;28;20028;-77
2022/02/12 07:45:10;;;;;;;29.50;12.82;;;;;;;-2.15;99.88;102975.25;5052640;28;20060;-75
2022/02/12 07:47:36;;;;;;;27.38;11.50;;;;;;;-2.05;99.69;102976.06;5051222;28;20477;-75
2022/02/12 07:50:03;;;;;;;34.42;11.82;;;;;;;-1.99;99.41;102981.25;5052433;28;20126;-75
2022/02/12 07:52:29;;;;;;;26.48;12.35;;;;;;;-1.89;99.47;102983.84;5052908;28;20033;-75
2022/02/12 07:54:54;;;;;;;28.88;11.80;;;;;;;-1.79;99.24;102975.13;5051764;28;20466;-75
2022/02/12 07:57:19;;;;;;;38.60;12.40;;;;;;;-1.74;99.05;102970.72;5052258;28;20033;-75
2022/02/12 07:59:45;;;;;;;30.50;11.00;;;;;;;-1.64;98.50;102961.13;5052668;28;20469;-76
2022/02/12 08:02:10;;;;;;;31.05;11.82;;;;;;;-1.52;98.45;102965.38;5050956;28;20403;-76
2022/02/12 08:04:36;;;;;;;29.00;11.27;;;;;;;-1.39;97.90;102966.19;5052897;28;20060;-76
2022/02/12 08:09:46;;;;;;;25.67;11.25;;;;;;;-1.18;97.23;102963.44;5052905;28;20150;-74
2022/02/12 08:12:15;;;;;;;27.17;10.93;;;;;;;-1.05;96.94;102963.34;5050765;28;20091;-74
2022/02/12 08:14:46;;;;;;;24.42;11.07;;;;;;;-0.91;96.17;102970.19;5052453;28;20127;-75
2022/02/12 08:17:15;;;;;;;25.00;11.82;;;;;;;-0.80;94.82;102961.38;5052029;28;20069;-74
2022/02/12 08:19:40;;;;;;;29.13;10.48;;;;;;;-0.68;93.75;102952.56;5052193;28;20095;-74
2022/02/12 08:22:06;;;;;;;27.38;10.20;;;;;;;-0.58;93.77;102962.06;5050579;28;20036;-75
2022/02/12 08:24:32;;;;;;;21.73;9.60;;;;;;;-0.45;92.43;102953.22;5052471;28;20108;-74
2022/02/12 08:26:58;;;;;;;31.67;10.65;;;;;;;-0.34;92.08;102954.81;5052252;28;20025;-74
2022/02/12 08:29:28;;;;;;;31.77;10.10;;;;;;;-0.27;91.99;102951.25;5051603;28;20387;-73
2022/02/12 08:32:00;;;;;;;26.90;10.60;;;;;;;-0.17;92.19;102957.25;5052186;28;20036;-73
2022/02/12 08:34:27;;;;;;;23.88;10.07;;;;;;;-0.03;91.28;102963.19;5051292;28;20473;-73
2022/02/12 08:36:52;;;;;;;22.15;9.50;;;;;;;0.10;90.53;102954.28;5048029;28;20821;-74
2022/02/12 08:39:19;;;;;;;26.75;10.48;;;;;;;0.22;90.25;102942.78;5048752;28;20112;-73
2022/02/12 08:41:45;;;;;;;22.90;9.70;;;;;;;0.35;88.32;102944.34;5049287;28;20047;-73
2022/02/12 08:44:10;;;;;;;25.48;10.30;;;;;;;0.44;88.12;102940.75;5048819;28;20098;-73
2022/02/12 08:46:36;;;;;;;21.42;8.95;;;;;;;0.58;87.53;102937.91;5047738;28;20044;-73
2022/02/12 08:49:01;;;;;;;23.02;10.38;;;;;;;0.70;87.01;102918.50;5048520;28;20537;-74
2022/02/12 08:51:27;;;;;;;31.45;10.80;;;;;;;0.80;86.86;102927.97;5048372;28;20037;-73
2022/02/12 08:53:53;;;;;;;26.45;9.50;;;;;;;0.92;86.10;102923.44;5047636;28;20087;-73
2022/02/12 08:56:18;;;;;;;26.00;10.25;;;;;;;1.03;85.67;102918.84;5048767;28;20037;-73
2022/02/12 08:58:43;;;;;;;27.48;9.50;;;;;;;1.13;85.01;102915.19;5048856;28;20064;-74
2022/02/12 09:01:09;;;;;;;24.15;9.55;;;;;;;1.26;84.89;102904.50;5047901;28;20033;-73
2022/02/12 09:03:35;;;;;;;33.33;9.43;;;;;;;1.37;84.31;102895.53;5048806;28;20342;-73
2022/02/12 09:06:01;;;;;;;21.30;8.57;;;;;;;1.49;83.82;102894.41;5048917;28;20370;-74
2022/02/12 09:08:27;;;;;;;19.40;8.57;;;;;;;1.64;83.64;102881.88;5048422;28;20507;-73
2022/02/12 09:10:53;;;;;;;25.20;8.57;;;;;;;1.74;82.86;102879.03;5048693;28;20032;-75
2022/02/12 09:13:18;;;;;;;24.38;9.05;;;;;;;1.84;81.44;102894.59;5047672;28;20036;-74
2022/02/12 09:15:44;;;;;;;23.33;7.40;;;;;;;1.97;82.38;102887.31;5048567;28;20051;-73
2022/02/12 09:18:09;;;;;;;22.17;8.68;;;;;;;2.11;80.97;102886.13;5048156;28;20130;-74
2022/02/12 09:20:35;;;;;;;26.70;8.10;;;;;;;2.20;80.33;102889.44;5048504;28;20408;-73
2022/02/12 09:23:00;;;;;;;19.92;8.15;;;;;;;2.32;79.54;102880.44;5048470;28;20537;-73
2022/02/12 09:25:26;;;;;;;22.02;8.02;;;;;;;2.46;80.30;102884.47;5046447;28;20051;-73
2022/02/12 09:27:51;;;;;;;19.60;8.23;;;;;;;2.48;80.47;102881.78;5046927;28;20036;-74
2022/02/12 09:30:16;;;;;;;19.80;8.48;;;;;;;2.70;81.36;102883.88;5047931;28;20682;-73
2022/02/12 09:32:42;;;;;;;20.75;8.15;;;;;;;2.72;77.84;102885.59;5048214;28;20440;-71
2022/02/12 09:35:08;;;;;;;30.90;8.43;;;;;;;2.88;78.97;102880.81;5048236;28;20041;-72
2022/02/12 09:37:33;;;;;;;20.95;8.13;;;;;;;2.96;76.42;102878.84;5048179;28;20056;-72
2022/02/12 09:39:58;;;;;;;19.75;8.07;;;;;;;3.05;76.09;102880.38;5049352;28;20033;-73
2022/02/12 09:42:25;;;;;;;18.55;8.23;;;;;;;3.35;76.61;102875.19;5047593;28;20033;-73
2022/02/12 09:44:50;;;;;;;19.88;7.90;;;;;;;3.59;74.79;102864.88;5049468;28;20036;-73
2022/02/12 09:47:43;;;;;;;17.17;7.18;;;;;;;3.77;72.21;102866.97;5048827;28;20044;-72
2022/02/12 09:50:08;;;;;;;25.60;7.57;;;;;;;4.24;71.81;102875.19;5048949;28;20025;-73
2022/02/12 09:52:35;;;;;;;18.55;6.88;;;;;;;4.52;68.50;102869.06;5047311;28;20044;-72
2022/02/12 09:55:01;;;;;;;13.95;6.90;;;;;;;5.20;67.33;102863.25;5059323;28;20025;-72
2022/02/12 09:57:27;;;;;;;18.85;7.15;;;;;;;6.04;64.87;102864.53;5068527;28;20406;-74
2022/02/12 10:00:06;;;;;;;17.65;5.90;;;;;;;7.17;59.06;102860.75;5066588;28;20032;-75
2022/02/12 10:02:31;;;;;;;18.75;5.72;;;;;;;7.91;56.14;102851.25;5047933;28;20032;-73
2022/02/12 10:05:19;;;;;;;18.50;4.70;;;;;;;8.58;52.54;102840.97;5030848;28;20029;-75
2022/02/12 10:07:46;;;;;;;19.08;5.00;;;;;;;8.95;52.02;102837.28;5049159;28;20021;-74
2022/02/12 10:10:17;;;;;;;13.05;4.50;;;;;;;8.53;51.90;102832.38;5037869;28;20026;-73
2022/02/12 10:12:42;;;;;;;12.18;5.03;;;;;;;8.64;51.07;102838.88;5038558;28;20056;-74
2022/02/12 10:15:26;;;;;;;18.00;5.50;;;;;;;9.22;49.59;102827.97;5046002;28;20037;-76
2022/02/12 10:17:56;;;;;;;12.82;5.25;;;;;;;9.37;48.35;102821.81;5052429;28;20060;-75
2022/02/12 10:20:29;;;;;;;14.13;4.73;;;;;;;9.97;47.38;102825.63;5050544;28;20424;-76
2022/02/12 10:23:01;;;;;;;11.70;5.10;;;;;;;10.85;45.08;102829.44;5053046;28;20109;-76
2022/02/12 10:25:27;;;;;;;20.02;5.20;;;;;;;11.28;43.78;102831.25;5051594;28;20032;-74
2022/02/12 10:27:53;;;;;;;15.23;5.40;;;;;;;10.28;46.15;102826.56;5052291;28;20052;-75
2022/02/12 10:30:18;;;;;;;15.48;5.50;;;;;;;9.83;46.09;102831.72;5050520;28;20076;-75
2022/02/12 10:32:44;;;;;;;16.50;5.68;;;;;;;9.77;46.86;102832.09;5034356;28;20524;-75
2022/02/12 10:35:11;;;;;;;13.63;5.18;;;;;;;10.02;46.89;102829.75;5052239;28;20095;-74
2022/02/12 10:37:43;;;;;;;12.63;4.72;;;;;;;11.68;41.07;102820.75;5051195;28;20056;-75
2022/02/12 10:40:09;;;;;;;13.43;4.18;;;;;;;10.89;43.71;102828.28;5050796;28;20083;-75
2022/02/12 10:42:43;;;;;;;17.92;4.70;;;;;;;11.37;41.93;102824.50;5051523;28;20112;-74
2022/02/12 10:45:19;;;;;;;11.73;4.32;;;;;;;12.04;40.66;102815.84;5051986;28;20115;-74
2022/02/12 10:47:45;;;;;;;14.65;4.63;;;;;;;12.01;40.44;102824.91;5051610;28;20045;-74
2022/02/12 10:50:12;;;;;;;11.02;3.80;;;;;;;11.10;41.90;102828.78;5040744;28;20040;-77
2022/02/12 10:52:40;;;;;;;13.90;3.92;;;;;;;10.23;43.04;102817.03;5051264;28;20036;-75
2022/02/12 10:55:07;;;;;;;7.50;3.03;;;;;;;9.24;44.95;102818.09;5052226;28;20033;-75
2022/02/12 10:57:38;;;;;;;12.77;3.53;;;;;;;9.89;44.00;102818.09;5051307;28;20036;-74
2022/02/12 11:00:07;;;;;;;12.02;3.70;;;;;;;9.55;45.55;102804.00;5050925;28;20116;-74
2022/02/12 11:02:38;;;;;;;19.95;5.07;;;;;;;8.74;47.11;102806.56;5050904;28;20495;-74
2022/02/12 11:05:04;;;;;;;10.63;3.38;;;;;;;8.78;47.26;102790.38;5039303;28;20038;-74
2022/02/12 11:07:30;;;;;;;12.38;3.67;;;;;;;8.85;47.03;102784.75;5031094;28;20048;-76
2022/02/12 11:09:56;;;;;;;17.30;4.18;;;;;;;8.38;48.70;102797.69;5031913;28;20037;-76
2022/02/12 11:12:25;;;;;;;11.38;3.35;;;;;;;8.39;48.92;102793.22;5046043;28;20461;-76
2022/02/12 11:14:50;;;;;;;13.70;3.55;;;;;;;8.14;48.16;102775.91;5031640;28;20036;-76
2022/02/12 11:17:22;;;;;;;10.10;3.92;;;;;;;8.06;47.91;102770.09;5032216;28;20026;-76
2022/02/12 11:19:48;;;;;;;9.07;3.47;;;;;;;7.79;48.94;102761.72;5031202;28;20034;-76